createdAt,value
2022-08-09T00:02:03.616Z,22.67
2022-08-09T00:04:36.932Z,22.66
2022-08-09T00:07:20.765Z,22.62
2022-08-09T00:09:55.544Z,22.55
2022-08-09T00:12:26.993Z,22.56
2022-08-09T00:15:07.354Z,22.56
2022-08-09T00:18:10.841Z,22.57
2022-08-09T00:20:35.651Z,22.58
2022-08-09T00:23:09.901Z,22.57
2022-08-09T00:25:56.985Z,22.57
2022-08-09T00:28:28.066Z,22.56
2022-08-09T00:30:58.643Z,22.53
2022-08-09T00:33:32.528Z,22.45
2022-08-09T00:36:21.485Z,22.40
2022-08-09T00:38:50.872Z,22.34
2022-08-09T00:44:14.249Z,22.26
2022-08-09T00:44:20.303Z,22.18
2022-08-09T00:47:06.074Z,22.09
2022-08-09T00:49:39.760Z,22.04
2022-08-09T00:52:17.586Z,21.97
2022-08-09T00:54:48.872Z,21.87
2022-08-09T00:57:33.885Z,21.98
2022-08-09T01:00:20.696Z,22.01
2022-08-09T01:02:54.890Z,22.05
2022-08-09T01:05:51.651Z,22.09
2022-08-09T01:08:30.294Z,22.14
2022-08-09T01:11:15.233Z,22.15
2022-08-09T01:13:58.547Z,22.15
2022-08-09T01:16:35.833Z,22.16
2022-08-09T01:19:39.652Z,22.11
2022-08-09T01:22:36.832Z,22.07
2022-08-09T01:25:23.260Z,22.07
2022-08-09T01:27:58.063Z,22.02
2022-08-09T01:30:35.698Z,21.97
2022-08-09T01:33:28.878Z,21.90
2022-08-09T01:36:05.747Z,21.88
2022-08-09T01:38:40.218Z,21.82
2022-08-09T01:41:19.347Z,21.81
2022-08-09T01:44:00.300Z,21.85
2022-08-09T01:46:39.064Z,21.89
2022-08-09T01:49:14.810Z,21.87
2022-08-09T01:51:53.855Z,21.89
2022-08-09T01:54:32.564Z,21.89
2022-08-09T01:57:08.931Z,21.94
2022-08-09T01:59:52.249Z,21.92
2022-08-09T02:02:31.253Z,21.88
2022-08-09T02:05:15.114Z,21.84
2022-08-09T02:08:40.230Z,21.89
2022-08-09T02:11:16.573Z,21.88
2022-08-09T02:14:10.378Z,21.90
2022-08-09T02:16:59.402Z,21.93
2022-08-09T02:19:43.553Z,21.94
2022-08-09T02:22:31.755Z,21.91
2022-08-09T02:25:09.391Z,21.87
2022-08-09T02:28:04.131Z,21.88
2022-08-09T02:30:43.908Z,21.82
2022-08-09T02:33:22.936Z,21.85
2022-08-09T02:36:02.956Z,21.83
2022-08-09T02:38:47.783Z,21.82
2022-08-09T02:41:26.352Z,21.80
2022-08-09T02:44:01.150Z,21.85
2022-08-09T02:46:42.073Z,21.86
2022-08-09T02:49:19.943Z,21.87
2022-08-09T02:52:09.827Z,21.78
2022-08-09T02:54:54.863Z,21.75
2022-08-09T02:57:27.694Z,21.75
2022-08-09T03:00:20.389Z,21.74
2022-08-09T03:02:58.255Z,21.67
2022-08-09T03:05:34.451Z,21.67
2022-08-09T03:08:04.581Z,21.66
2022-08-09T03:10:34.214Z,21.66
2022-08-09T03:13:08.386Z,21.67
2022-08-09T03:16:06.889Z,21.63
2022-08-09T03:18:34.717Z,21.66
2022-08-09T03:21:12.324Z,21.70
2022-08-09T03:24:04.055Z,21.71
2022-08-09T03:26:36.614Z,21.74
2022-08-09T03:29:22.608Z,21.66
2022-08-09T03:32:00.321Z,21.54
2022-08-09T03:34:31.238Z,21.50
2022-08-09T03:37:54.879Z,21.49
2022-08-09T03:40:00.261Z,21.43
2022-08-09T03:42:31.834Z,21.45
2022-08-09T03:45:02.127Z,21.43
2022-08-09T03:47:39.802Z,21.40
2022-08-09T03:50:12.876Z,21.31
2022-08-09T03:52:53.512Z,21.32
2022-08-09T03:55:23.537Z,21.30
2022-08-09T03:58:06.433Z,21.26
2022-08-09T04:00:49.656Z,21.16
2022-08-09T04:03:35.318Z,21.06
2022-08-09T04:06:10.113Z,21.03
2022-08-09T04:08:47.245Z,20.95
2022-08-09T04:11:17.624Z,20.98
2022-08-09T04:17:16.842Z,21.08
2022-08-09T04:19:55.987Z,20.96
2022-08-09T04:22:27.997Z,21.01
2022-08-09T04:25:01.517Z,21.04
2022-08-09T04:30:10.319Z,20.97
2022-08-09T04:32:45.908Z,20.87
2022-08-09T04:35:17.716Z,20.87
2022-08-09T04:37:52.933Z,20.88
2022-08-09T04:40:46.731Z,20.86
2022-08-09T04:43:17.595Z,20.95
2022-08-09T04:45:53.770Z,20.93
2022-08-09T04:48:33.210Z,20.94
2022-08-09T04:51:02.547Z,20.89
2022-08-09T04:53:33.322Z,20.85
2022-08-09T04:56:13.719Z,20.86
2022-08-09T04:59:15.392Z,20.80
2022-08-09T05:01:47.441Z,20.77
2022-08-09T05:04:19.144Z,20.77
2022-08-09T05:07:06.820Z,20.75
2022-08-09T05:09:49.775Z,20.72
2022-08-09T05:12:23.093Z,20.70
2022-08-09T05:14:54.074Z,20.75
2022-08-09T05:18:37.443Z,20.80
2022-08-09T05:20:18.116Z,20.80
2022-08-09T05:23:53.658Z,21.05
2022-08-09T05:25:42.193Z,20.93
2022-08-09T05:28:18.100Z,21.01
2022-08-09T05:30:48.182Z,21.29
2022-08-09T05:33:18.831Z,21.10
2022-08-09T05:35:50.965Z,21.07
2022-08-09T05:38:21.943Z,21.16
2022-08-09T05:40:52.877Z,21.18
2022-08-09T05:43:24.284Z,21.19
2022-08-09T05:46:00.918Z,21.27
2022-08-09T05:48:32.896Z,21.32
2022-08-09T05:51:29.748Z,21.29
2022-08-09T05:53:58.172Z,21.38
2022-08-09T05:56:28.497Z,21.40
2022-08-09T05:58:59.503Z,21.45
2022-08-09T06:01:33.465Z,21.42
2022-08-09T06:04:06.161Z,21.48
2022-08-09T06:06:36.049Z,21.54
2022-08-09T06:09:40.849Z,21.60
2022-08-09T06:11:59.947Z,21.74
2022-08-09T06:14:31.154Z,21.94
2022-08-09T06:17:04.989Z,22.10
2022-08-09T06:19:39.404Z,22.26
2022-08-09T06:22:28.928Z,22.40
2022-08-09T06:25:17.820Z,22.50
2022-08-09T06:27:53.185Z,22.59
2022-08-09T06:30:24.573Z,22.63
2022-08-09T06:33:13.282Z,22.65
2022-08-09T06:35:57.348Z,22.75
2022-08-09T06:38:36.365Z,22.74
2022-08-09T06:41:18.123Z,22.76
2022-08-09T06:43:48.011Z,22.84
2022-08-09T06:46:39.104Z,22.89
2022-08-09T06:49:08.445Z,22.90
2022-08-09T06:51:39.062Z,22.94
2022-08-09T06:54:12.526Z,22.96
2022-08-09T06:56:47.230Z,22.97
2022-08-09T07:00:49.342Z,22.85
2022-08-09T07:02:11.817Z,22.92
2022-08-09T07:04:49.612Z,22.93
2022-08-09T07:08:00.029Z,22.98
2022-08-09T07:10:29.491Z,23.07
2022-08-09T07:13:18.545Z,23.12
2022-08-09T07:16:41.821Z,23.14
2022-08-09T07:18:47.562Z,23.16
2022-08-09T07:21:21.278Z,23.18
2022-08-09T07:23:56.444Z,23.19
2022-08-09T07:26:26.348Z,23.19
2022-08-09T07:29:08.363Z,23.20
2022-08-09T07:31:45.529Z,23.21
2022-08-09T07:34:20.292Z,23.28
2022-08-09T07:36:52.938Z,23.33
2022-08-09T07:39:40.245Z,23.39
2022-08-09T07:42:12.633Z,23.43
2022-08-09T07:44:50.995Z,23.44
2022-08-09T07:47:25.763Z,23.49
2022-08-09T07:50:07.787Z,23.54
2022-08-09T07:52:41.347Z,23.73
2022-08-09T07:55:13.405Z,23.61
2022-08-09T07:57:47.766Z,23.73
2022-08-09T08:00:36.252Z,23.61
2022-08-09T08:03:08.316Z,23.61
2022-08-09T08:05:58.038Z,23.67
2022-08-09T08:09:01.124Z,23.68
2022-08-09T08:12:10.640Z,23.69
2022-08-09T08:14:14.959Z,23.72
2022-08-09T08:17:00.996Z,23.73
2022-08-09T08:19:40.888Z,23.76
2022-08-09T08:22:18.018Z,23.77
2022-08-09T08:24:57.504Z,23.74
2022-08-09T08:27:27.768Z,23.75
2022-08-09T08:30:12.726Z,23.75
2022-08-09T08:32:52.561Z,23.74
2022-08-09T08:35:25.575Z,23.74
2022-08-09T08:38:11.570Z,23.74
2022-08-09T08:40:44.421Z,23.72
2022-08-09T08:43:20.408Z,23.69
2022-08-09T08:46:04.071Z,23.71
2022-08-09T08:48:51.432Z,23.71
2022-08-09T08:51:24.518Z,23.71
2022-08-09T08:54:04.233Z,23.72
2022-08-09T08:56:39.797Z,23.74
2022-08-09T08:59:19.995Z,23.77
2022-08-09T09:01:56.777Z,23.78
2022-08-09T09:04:37.862Z,23.80
2022-08-09T09:07:19.005Z,23.81
2022-08-09T09:10:01.790Z,23.94
2022-08-09T09:12:36.865Z,23.81
2022-08-09T09:15:12.091Z,23.79
2022-08-09T09:17:49.295Z,23.80
2022-08-09T09:20:27.667Z,23.81
2022-08-09T09:23:02.104Z,23.82
2022-08-09T09:26:01.987Z,23.91
2022-08-09T09:29:01.732Z,23.90
2022-08-09T09:32:04.645Z,23.92
2022-08-09T09:34:21.424Z,23.93
2022-08-09T09:36:59.314Z,23.97
2022-08-09T09:39:55.121Z,23.98
2022-08-09T09:42:29.620Z,24.01
2022-08-09T09:45:04.057Z,24.02
2022-08-09T09:47:40.798Z,24.02
2022-08-09T09:50:50.650Z,24.12
2022-08-09T09:53:57.366Z,24.06
2022-08-09T09:56:31.085Z,24.06
2022-08-09T09:59:03.603Z,24.07
2022-08-09T10:01:37.869Z,24.07
2022-08-09T10:04:22.918Z,24.10
2022-08-09T10:07:09.819Z,24.08
2022-08-09T10:09:55.551Z,24.12
2022-08-09T10:12:28.339Z,24.09
2022-08-09T10:15:17.674Z,24.14
2022-08-09T10:18:14.503Z,24.12
2022-08-09T10:20:48.534Z,24.11
2022-08-09T10:23:28.779Z,24.14
2022-08-09T10:26:07.955Z,24.13
2022-08-09T10:28:49.040Z,24.17
2022-08-09T10:34:32.842Z,24.16
2022-08-09T10:37:04.887Z,24.19
2022-08-09T10:39:49.327Z,24.25
2022-08-09T10:42:22.136Z,24.27
2022-08-09T10:45:01.604Z,24.30
2022-08-09T10:48:14.488Z,24.36
2022-08-09T10:51:04.583Z,24.37
2022-08-09T10:53:54.209Z,24.38
2022-08-09T10:56:28.756Z,24.34
2022-08-09T10:59:04.354Z,24.35
2022-08-09T11:03:11.547Z,24.43
2022-08-09T11:04:35.660Z,24.41
2022-08-09T11:07:55.054Z,24.45
2022-08-09T11:11:00.881Z,24.48
2022-08-09T11:13:50.553Z,24.45
2022-08-09T11:16:39.418Z,24.46
2022-08-09T11:19:11.493Z,24.41
2022-08-09T11:22:05.232Z,24.49
2022-08-09T11:25:11.471Z,24.50
2022-08-09T11:28:04.885Z,24.47
2022-08-09T11:30:37.865Z,24.47
2022-08-09T11:33:29.299Z,24.45
2022-08-09T11:36:04.129Z,24.50
2022-08-09T11:38:41.334Z,24.52
2022-08-09T11:41:37.542Z,24.59
2022-08-09T11:44:09.777Z,24.52
2022-08-09T11:47:01.792Z,24.60
2022-08-09T11:50:54.842Z,24.64
2022-08-09T11:53:58.485Z,24.67
2022-08-09T11:56:42.034Z,24.70
2022-08-09T11:59:30.292Z,24.80
2022-08-09T12:02:34.221Z,24.91
2022-08-09T12:05:00.008Z,25.07
2022-08-09T12:07:41.280Z,25.17
2022-08-09T12:10:14.479Z,25.25
2022-08-09T12:14:09.819Z,25.34
2022-08-09T12:16:01.119Z,25.44
2022-08-09T12:18:33.839Z,25.56
2022-08-09T12:21:10.992Z,25.62
2022-08-09T12:24:08.806Z,25.59
2022-08-09T12:29:14.071Z,25.55
2022-08-09T12:29:52.398Z,25.58
2022-08-09T12:32:28.366Z,25.63
2022-08-09T12:35:02.954Z,25.73
2022-08-09T12:37:50.682Z,25.60
2022-08-09T12:40:27.247Z,25.72
2022-08-09T12:43:02.282Z,25.81
2022-08-09T12:45:38.626Z,25.97
2022-08-09T12:48:30.923Z,26.09
2022-08-09T12:51:03.798Z,26.22
2022-08-09T12:53:38.866Z,26.46
2022-08-09T12:56:37.028Z,26.53
2022-08-09T12:59:11.885Z,26.73
2022-08-09T13:01:49.802Z,26.85
2022-08-09T13:04:36.609Z,26.79
2022-08-09T13:07:12.103Z,26.87
2022-08-09T13:09:43.422Z,26.95
2022-08-09T13:12:27.975Z,27.04
2022-08-09T13:15:07.642Z,27.13
2022-08-09T13:18:06.243Z,27.18
2022-08-09T13:22:33.100Z,27.24
2022-08-09T13:24:16.310Z,27.26
2022-08-09T13:26:37.063Z,27.47
2022-08-09T13:29:13.173Z,27.50
2022-08-09T13:32:20.369Z,27.55
2022-08-09T13:34:55.635Z,27.66
2022-08-09T13:37:52.022Z,27.68
2022-08-09T13:41:46.965Z,27.74
2022-08-09T13:43:16.037Z,27.89
2022-08-09T13:46:43.718Z,28.11
2022-08-09T13:48:42.304Z,28.32
2022-08-09T13:51:13.844Z,28.43
2022-08-09T13:53:49.819Z,28.51
2022-08-09T13:56:22.700Z,28.64
2022-08-09T13:58:57.100Z,28.67
2022-08-09T14:01:56.002Z,28.64
2022-08-09T14:04:24.005Z,28.70
2022-08-09T14:07:01.095Z,28.82
2022-08-09T14:09:35.547Z,28.83
2022-08-09T14:12:15.490Z,28.85
2022-08-09T14:14:53.455Z,28.96
2022-08-09T14:17:26.956Z,29.03
2022-08-09T14:20:19.262Z,29.19
2022-08-09T14:22:51.651Z,29.19
2022-08-09T14:25:23.978Z,29.25
2022-08-09T14:28:04.342Z,29.37
2022-08-09T14:30:41.649Z,29.35
2022-08-09T14:33:13.282Z,29.42
2022-08-09T14:35:53.505Z,29.52
2022-08-09T14:38:25.497Z,29.63
2022-08-09T14:41:02.153Z,29.56
2022-08-09T14:43:47.688Z,29.58
2022-08-09T14:46:54.808Z,29.59
2022-08-09T14:49:16.151Z,29.62
2022-08-09T14:51:47.767Z,29.75
2022-08-09T14:54:22.391Z,29.99
2022-08-09T14:56:58.910Z,30.25
2022-08-09T14:59:30.731Z,30.52
2022-08-09T15:01:59.442Z,30.66
2022-08-09T15:04:27.436Z,30.82
2022-08-09T15:06:55.998Z,30.96
2022-08-09T15:10:03.856Z,31.17
2022-08-09T15:12:15.172Z,31.30
2022-08-09T15:14:43.215Z,31.39
2022-08-09T15:17:12.907Z,31.47
2022-08-09T15:19:58.932Z,31.56
2022-08-09T15:22:32.903Z,31.68
2022-08-09T15:25:05.092Z,31.81
2022-08-09T15:27:55.226Z,31.93
2022-08-09T15:30:48.593Z,32.01
2022-08-09T15:33:23.502Z,32.11
2022-08-09T15:36:09.578Z,32.16
2022-08-09T15:38:40.131Z,32.20
2022-08-09T15:41:13.105Z,32.24
2022-08-09T15:43:53.286Z,32.27
2022-08-09T15:46:33.452Z,32.28
2022-08-09T15:49:22.423Z,32.35
2022-08-09T15:52:05.196Z,32.36
2022-08-09T15:54:44.714Z,32.42
2022-08-09T15:57:34.080Z,32.46
2022-08-09T16:00:13.757Z,32.45
2022-08-09T16:02:53.527Z,32.54
2022-08-09T16:05:26.982Z,32.58
2022-08-09T16:08:29.926Z,32.63
2022-08-09T16:10:59.915Z,32.65
2022-08-09T16:14:02.581Z,32.69
2022-08-09T16:16:28.193Z,32.71
2022-08-09T16:19:01.804Z,32.74
2022-08-09T16:21:34.834Z,32.77
2022-08-09T16:24:05.633Z,32.81
2022-08-09T16:26:43.639Z,32.80
2022-08-09T16:29:20.999Z,32.75
2022-08-09T16:32:19.940Z,32.75
2022-08-09T16:35:02.482Z,32.77
2022-08-09T16:37:54.942Z,32.73
2022-08-09T16:40:39.788Z,32.68
2022-08-09T16:43:12.591Z,32.63
2022-08-09T16:45:53.739Z,32.62
2022-08-09T16:48:41.447Z,32.60
2022-08-09T16:51:17.671Z,32.53
2022-08-09T16:54:25.747Z,32.43
2022-08-09T16:56:49.107Z,32.33
2022-08-09T16:59:21.003Z,32.23
2022-08-09T17:01:55.621Z,32.17
2022-08-09T17:04:28.915Z,32.09
2022-08-09T17:08:40.270Z,32.05
2022-08-09T17:09:54.180Z,31.96
2022-08-09T17:12:32.652Z,31.89
2022-08-09T17:15:31.445Z,31.81
2022-08-09T17:18:00.545Z,31.76
2022-08-09T17:20:36.130Z,31.64
2022-08-09T17:23:14.718Z,31.58
2022-08-09T17:25:53.167Z,31.51
2022-08-09T17:28:24.162Z,31.46
2022-08-09T17:30:57.510Z,31.36
2022-08-09T17:33:36.043Z,31.27
2022-08-09T17:36:15.981Z,31.14
2022-08-09T17:38:52.715Z,31.02
2022-08-09T17:41:38.843Z,30.95
2022-08-09T17:44:38.911Z,30.86
2022-08-09T17:47:02.201Z,30.80
2022-08-09T17:49:34.159Z,30.73
2022-08-09T17:52:07.189Z,30.64
2022-08-09T17:54:55.335Z,30.55
2022-08-09T17:58:02.436Z,30.47
2022-08-09T18:00:17.222Z,30.41
2022-08-09T18:02:57.920Z,30.35
2022-08-09T18:05:38.888Z,30.29
2022-08-09T18:08:13.201Z,30.20
2022-08-09T18:10:42.597Z,30.12
2022-08-09T18:13:43.432Z,30.02
2022-08-09T18:16:07.849Z,29.92
2022-08-09T18:18:43.210Z,29.81
2022-08-09T18:21:23.445Z,29.69
2022-08-09T18:24:11.587Z,29.59
2022-08-09T18:26:46.870Z,29.48
2022-08-09T18:30:36.071Z,29.37
2022-08-09T18:32:05.676Z,29.28
2022-08-09T18:34:35.563Z,29.18
2022-08-09T18:37:05.670Z,29.12
2022-08-09T18:39:39.588Z,29.04
2022-08-09T18:42:10.352Z,28.96
2022-08-09T18:44:45.484Z,28.92
2022-08-09T18:47:23.412Z,28.87
2022-08-09T18:50:02.935Z,28.85
2022-08-09T18:52:39.040Z,28.78
2022-08-09T18:55:13.715Z,28.59
2022-08-09T18:57:46.792Z,28.28
2022-08-09T19:00:20.580Z,28.09
2022-08-09T19:02:54.255Z,27.86
2022-08-09T19:05:41.514Z,27.71
2022-08-09T19:08:19.785Z,27.51
2022-08-09T19:10:51.335Z,27.32
2022-08-09T19:13:38.418Z,27.18
2022-08-09T19:16:18.382Z,27.06
2022-08-09T19:18:52.287Z,26.91
2022-08-09T19:21:52.384Z,26.71
2022-08-09T19:24:35.866Z,26.59
2022-08-09T19:27:05.869Z,26.55
2022-08-09T19:30:21.556Z,26.48
2022-08-09T19:32:31.405Z,26.36
2022-08-09T19:35:03.382Z,26.16
2022-08-09T19:37:40.992Z,26.08
2022-08-09T19:40:34.408Z,25.99
2022-08-09T19:43:10.172Z,25.92
2022-08-09T19:45:57.622Z,25.94
2022-08-09T19:49:02.183Z,25.91
2022-08-09T19:51:19.089Z,25.93
2022-08-09T19:53:49.224Z,25.92
2022-08-09T19:56:29.407Z,25.83
2022-08-09T19:59:39.873Z,25.90
2022-08-09T20:02:06.359Z,25.89
2022-08-09T20:04:47.816Z,25.88
2022-08-09T20:07:56.791Z,25.89
2022-08-09T20:10:17.824Z,25.98
2022-08-09T20:12:54.232Z,26.03
2022-08-09T20:16:33.265Z,26.09
2022-08-09T20:18:15.947Z,26.01
2022-08-09T20:20:47.668Z,26.00
2022-08-09T20:23:23.655Z,25.87
2022-08-09T20:25:54.181Z,25.80
2022-08-09T20:28:34.432Z,25.73
2022-08-09T20:31:20.045Z,25.71
2022-08-09T20:33:52.462Z,25.73
2022-08-09T20:36:33.240Z,25.73
2022-08-09T20:39:28.152Z,25.69
2022-08-09T20:41:56.399Z,25.72
2022-08-09T20:44:29.577Z,25.76
2022-08-09T20:47:02.843Z,25.76
2022-08-09T20:49:34.346Z,25.74
2022-08-09T20:52:04.891Z,25.79
2022-08-09T20:54:36.849Z,25.80
2022-08-09T20:57:11.675Z,25.74
2022-08-09T21:00:31.333Z,25.73
2022-08-09T21:02:41.288Z,25.72
2022-08-09T21:05:51.900Z,25.69
2022-08-09T21:08:02.527Z,25.71
2022-08-09T21:10:35.575Z,25.64
2022-08-09T21:13:04.463Z,25.58
2022-08-09T21:15:35.576Z,25.59
2022-08-09T21:18:23.188Z,25.60
2022-08-09T21:20:56.031Z,25.62
2022-08-09T21:23:47.927Z,25.57
2022-08-09T21:26:16.255Z,25.57
2022-08-09T21:28:55.545Z,25.55
2022-08-09T21:31:49.027Z,25.54
2022-08-09T21:34:28.840Z,25.52
2022-08-09T21:36:58.831Z,25.52
2022-08-09T21:39:28.268Z,25.51
2022-08-09T21:42:11.167Z,25.55
2022-08-09T21:44:42.703Z,25.52
2022-08-09T21:47:18.171Z,25.57
2022-08-09T21:49:48.195Z,25.54
2022-08-09T21:52:20.688Z,25.54
2022-08-09T21:55:03.234Z,25.50
2022-08-09T21:57:38.895Z,25.50
2022-08-09T22:00:26.558Z,25.50
2022-08-09T22:03:08.086Z,25.43
2022-08-09T22:05:54.263Z,25.37
2022-08-09T22:08:25.798Z,25.41
2022-08-09T22:11:49.808Z,25.40
2022-08-09T22:13:44.045Z,25.37
2022-08-09T22:16:12.849Z,25.08
2022-08-09T22:18:53.041Z,24.90
2022-08-09T22:21:24.101Z,24.83
2022-08-09T22:24:00.036Z,24.83
2022-08-09T22:26:34.791Z,24.85
2022-08-09T22:29:09.534Z,24.90
2022-08-09T22:31:50.111Z,24.95
2022-08-09T22:34:27.083Z,24.96
2022-08-09T22:36:55.583Z,24.90
2022-08-09T22:39:58.028Z,24.90
2022-08-09T22:42:21.259Z,24.86
2022-08-09T22:45:00.537Z,24.82
2022-08-09T22:48:13.937Z,24.80
2022-08-09T22:50:33.443Z,24.80
2022-08-09T22:53:03.858Z,24.75
2022-08-09T22:56:05.811Z,24.71
2022-08-09T22:58:33.134Z,24.68
2022-08-09T23:01:03.583Z,24.58
2022-08-09T23:04:03.865Z,24.51
2022-08-09T23:06:34.661Z,24.51
2022-08-09T23:09:04.897Z,24.54
2022-08-09T23:11:33.561Z,24.58
2022-08-09T23:14:03.001Z,24.56
2022-08-09T23:16:32.240Z,24.49
2022-08-09T23:19:00.741Z,24.40
2022-08-09T23:21:34.760Z,24.29
2022-08-09T23:24:07.309Z,24.22
2022-08-09T23:26:36.543Z,24.22
2022-08-09T23:29:05.983Z,24.28
2022-08-09T23:31:34.307Z,24.30
2022-08-09T23:34:03.827Z,24.24
2022-08-09T23:36:34.316Z,24.20
2022-08-09T23:39:03.409Z,24.27
2022-08-09T23:41:31.545Z,24.32
2022-08-09T23:44:00.807Z,24.36
2022-08-09T23:46:29.347Z,24.40
2022-08-09T23:48:58.122Z,24.42
2022-08-09T23:51:27.145Z,24.43
2022-08-09T23:54:02.243Z,24.45
2022-08-09T23:56:52.145Z,24.43
2022-08-09T23:59:20.699Z,24.34
